SLCO

Details ICAO SLCO (CIJ)
Name HEROES DEL ACRE
Region Bolivia
Timezone America/La_Paz (UTC-4.0)
Plans Departing 8
Arriving 4
Stats Elevation 892 ft / 272 m (AMSL)
Location -11.040437° -68.782925°
Runways 1
Magnetic Variation 8.747° W
Sunrise 2017-12-13 10:07:58 UTC / 2017-12-13 06:07:58 Local
Sunset 2017-12-13 22:53:42 UTC / 2017-12-13 18:53:42 Local
Advertisement - Login to hide

Runways

ID Width Length Bearing (true) Bearing (mag) Surface Threshold Offset Overrun Length
02 98 ft / 30 m 6,613 ft / 2,016 m 10.61° 19.36° Asphalt 0 ft / 0 m 215 ft / 66 m
20 98 ft / 30 m 6,613 ft / 2,016 m 190.61° 199.36° Asphalt 0 ft / 0 m 215 ft / 66 m

Map

Weather


0- 5 10 15 20 25 30 35+ Temperature / ° C

Clouds and Precipitation
Forecast for 2017-12-14 00:00 UTC. Updated an hour ago

Ground ~20,000 ft ~40,000 ft Winds

METAR

SLCO 132200Z 02010KT 9999 FEW030 SCT070 OVC200 30/25 Q1007

TAF

Not found

Frequencies

Tower 118.30 MHz COBIJA TWR
Warning: Do not use this data for real-world aviation or navigation. No guarantee of current accuracy is given.